createdAt,value
2023-05-07T00:01:27.254Z,4.13
2023-05-07T00:03:54.108Z,4.75
2023-05-07T00:06:21.104Z,4.40
2023-05-07T00:08:47.764Z,5.20
2023-05-07T00:11:14.470Z,4.10
2023-05-07T00:13:41.115Z,4.80
2023-05-07T00:16:07.789Z,5.10
2023-05-07T00:18:34.560Z,4.78
2023-05-07T00:21:01.151Z,4.80
2023-05-07T00:23:27.832Z,4.50
2023-05-07T00:25:54.422Z,4.68
2023-05-07T00:28:27.563Z,4.70
2023-05-07T00:30:54.179Z,4.90
2023-05-07T00:33:21.828Z,5.10
2023-05-07T00:35:48.572Z,5.18
2023-05-07T00:38:15.789Z,5.07
2023-05-07T00:40:42.436Z,4.60
2023-05-07T00:43:09.905Z,4.78
2023-05-07T00:45:36.617Z,5.00
2023-05-07T00:48:04.138Z,5.13
2023-05-07T00:50:31.739Z,5.22
2023-05-07T00:52:58.760Z,4.72
2023-05-07T00:55:25.419Z,4.85
2023-05-07T00:57:52.232Z,4.78
2023-05-07T01:00:20.735Z,5.03
2023-05-07T01:02:47.706Z,4.85
2023-05-07T01:05:17.719Z,4.88
2023-05-07T01:07:45.454Z,5.50
2023-05-07T01:10:13.392Z,4.85
2023-05-07T01:12:41.686Z,4.50
2023-05-07T01:15:09.916Z,4.85
2023-05-07T01:17:42.200Z,5.20
2023-05-07T01:20:11.368Z,4.63
2023-05-07T01:22:39.632Z,4.68
2023-05-07T01:25:08.249Z,4.80
2023-05-07T01:27:36.451Z,4.50
2023-05-07T01:30:04.250Z,4.53
2023-05-07T01:32:44.987Z,4.68
2023-05-07T01:35:14.749Z,4.80
2023-05-07T01:37:42.110Z,4.80
2023-05-07T01:40:09.772Z,4.90
2023-05-07T01:42:36.760Z,4.40
2023-05-07T01:45:03.559Z,4.60
2023-05-07T01:47:31.086Z,5.15
2023-05-07T01:49:58.312Z,4.70
2023-05-07T01:52:26.152Z,4.70
2023-05-07T01:54:52.788Z,5.03
2023-05-07T01:57:19.427Z,4.90
2023-05-07T01:59:46.337Z,5.00
2023-05-07T02:02:13.034Z,4.78
2023-05-07T02:04:39.762Z,4.50
2023-05-07T02:07:06.436Z,4.50
2023-05-07T02:09:33.065Z,4.70
2023-05-07T02:11:59.647Z,4.55
2023-05-07T02:14:27.029Z,4.85
2023-05-07T02:16:53.749Z,5.13
2023-05-07T02:19:22.091Z,5.40
2023-05-07T02:21:49.064Z,4.55
2023-05-07T02:24:15.894Z,4.80
2023-05-07T02:26:42.569Z,4.82
2023-05-07T02:29:09.209Z,4.80
2023-05-07T02:31:35.970Z,5.00
2023-05-07T02:34:02.817Z,5.00
2023-05-07T02:36:29.669Z,5.45
2023-05-07T02:38:56.314Z,5.40
2023-05-07T02:41:22.952Z,4.50
2023-05-07T02:43:49.638Z,4.90
2023-05-07T02:46:16.844Z,4.90
2023-05-07T02:48:43.963Z,4.90
2023-05-07T02:51:10.852Z,5.25
2023-05-07T02:53:37.676Z,5.18
2023-05-07T02:56:04.575Z,5.20
2023-05-07T02:58:31.338Z,4.60
2023-05-07T03:00:58.280Z,5.13
2023-05-07T03:03:25.051Z,5.25
2023-05-07T03:05:51.735Z,4.80
2023-05-07T03:08:18.412Z,5.38
2023-05-07T03:10:45.104Z,5.00
2023-05-07T03:13:11.792Z,5.28
2023-05-07T03:15:38.484Z,5.15
2023-05-07T03:18:05.255Z,4.88
2023-05-07T03:20:32.280Z,4.90
2023-05-07T03:22:59.085Z,5.32
2023-05-07T03:25:25.963Z,5.47
2023-05-07T03:27:52.600Z,5.10
2023-05-07T03:30:19.888Z,5.10
2023-05-07T03:32:46.811Z,4.97
2023-05-07T03:35:13.497Z,5.28
2023-05-07T03:37:40.419Z,4.70
2023-05-07T03:40:08.579Z,4.78
2023-05-07T03:42:35.490Z,5.50
2023-05-07T03:45:02.132Z,4.82
2023-05-07T03:47:28.761Z,4.97
2023-05-07T03:49:56.138Z,4.90
2023-05-07T03:52:26.764Z,4.80
2023-05-07T03:54:54.346Z,4.80
2023-05-07T03:57:21.651Z,5.22
2023-05-07T03:59:48.391Z,4.80
2023-05-07T04:02:15.157Z,5.10
2023-05-07T04:04:41.928Z,5.10
2023-05-07T04:07:08.539Z,4.70
2023-05-07T04:09:35.183Z,5.00
2023-05-07T04:12:02.347Z,4.90
2023-05-07T04:14:29.047Z,5.60
2023-05-07T04:16:55.776Z,5.07
2023-05-07T04:19:24.573Z,5.10
2023-05-07T04:21:51.244Z,5.13
2023-05-07T04:24:17.938Z,5.25
2023-05-07T04:26:44.640Z,5.10
2023-05-07T04:29:11.238Z,5.07
2023-05-07T04:31:37.929Z,4.80
2023-05-07T04:34:04.549Z,5.65
2023-05-07T04:36:31.787Z,5.10
2023-05-07T04:38:58.384Z,4.90
2023-05-07T04:41:25.028Z,5.22
2023-05-07T04:43:52.505Z,5.22
2023-05-07T04:46:19.163Z,5.15
2023-05-07T04:48:45.840Z,5.30
2023-05-07T04:51:12.465Z,5.30
2023-05-07T04:53:39.156Z,5.10
2023-05-07T04:56:06.304Z,4.75
2023-05-07T04:58:33.131Z,5.03
2023-05-07T05:01:01.367Z,4.53
2023-05-07T05:03:28.320Z,5.30
2023-05-07T05:05:55.104Z,5.20
2023-05-07T05:08:21.816Z,5.28
2023-05-07T05:10:50.725Z,4.82
2023-05-07T05:13:17.675Z,4.88
2023-05-07T05:15:44.514Z,5.18
2023-05-07T05:18:11.194Z,5.00
2023-05-07T05:20:37.931Z,4.70
2023-05-07T05:23:04.568Z,5.20
2023-05-07T05:25:31.590Z,4.72
2023-05-07T05:27:58.202Z,5.07
2023-05-07T05:30:24.845Z,5.43
2023-05-07T05:32:51.734Z,4.93
2023-05-07T05:35:18.361Z,4.85
2023-05-07T05:37:44.993Z,5.18
2023-05-07T05:40:12.321Z,5.30
2023-05-07T05:42:39.096Z,4.90
2023-05-07T05:45:06.351Z,5.00
2023-05-07T05:47:33.082Z,4.60
2023-05-07T05:49:59.860Z,4.88
2023-05-07T05:52:26.520Z,4.60
2023-05-07T05:54:53.218Z,4.82
2023-05-07T05:57:19.989Z,4.65
2023-05-07T05:59:48.268Z,4.50
2023-05-07T06:02:15.012Z,4.60
2023-05-07T06:04:41.897Z,4.88
2023-05-07T06:07:08.593Z,4.80
2023-05-07T06:09:35.226Z,5.07
2023-05-07T06:12:01.938Z,4.95
2023-05-07T06:14:28.556Z,5.15
2023-05-07T06:16:55.396Z,4.68
2023-05-07T06:19:24.813Z,4.85
2023-05-07T06:21:51.562Z,4.90
2023-05-07T06:24:18.227Z,4.75
2023-05-07T06:26:44.836Z,4.90
2023-05-07T06:29:11.575Z,4.88
2023-05-07T06:31:38.284Z,4.68
2023-05-07T06:34:04.921Z,4.82
2023-05-07T06:36:31.706Z,4.70
2023-05-07T06:38:58.360Z,5.15
2023-05-07T06:41:25.161Z,4.80
2023-05-07T06:43:51.750Z,5.78
2023-05-07T06:46:18.539Z,5.05
2023-05-07T06:48:45.289Z,4.90
2023-05-07T06:51:11.917Z,4.90
2023-05-07T06:53:38.497Z,4.90
2023-05-07T06:56:05.488Z,4.80
2023-05-07T06:58:32.124Z,4.70
2023-05-07T07:00:58.953Z,5.00
2023-05-07T07:03:25.865Z,4.70
2023-05-07T07:05:54.125Z,4.80
2023-05-07T07:08:22.330Z,4.80
2023-05-07T07:10:49.279Z,4.70
2023-05-07T07:13:15.965Z,4.60
2023-05-07T07:15:42.715Z,4.90
2023-05-07T07:18:09.485Z,4.70
2023-05-07T07:20:36.116Z,4.60
2023-05-07T07:23:02.780Z,5.40
2023-05-07T07:25:29.425Z,4.63
2023-05-07T07:27:56.048Z,4.45
2023-05-07T07:30:22.735Z,4.80
2023-05-07T07:32:49.360Z,4.85
2023-05-07T07:35:16.031Z,4.53
2023-05-07T07:37:42.644Z,4.78
2023-05-07T07:40:10.372Z,5.17
2023-05-07T07:42:37.235Z,5.03
2023-05-07T07:45:04.327Z,5.50
2023-05-07T07:47:31.074Z,4.95
2023-05-07T07:49:57.926Z,5.00
2023-05-07T07:52:24.616Z,4.80
2023-05-07T07:54:51.244Z,5.53
2023-05-07T07:57:17.877Z,5.00
2023-05-07T07:59:44.614Z,4.82
2023-05-07T08:02:11.337Z,5.15
2023-05-07T08:04:38.706Z,4.60
2023-05-07T08:07:05.589Z,4.40
2023-05-07T08:09:32.183Z,5.20
2023-05-07T08:11:59.044Z,5.15
2023-05-07T08:14:25.885Z,4.80
2023-05-07T08:16:52.518Z,4.60
2023-05-07T08:19:19.135Z,4.80
2023-05-07T08:21:45.937Z,4.83
2023-05-07T08:24:12.775Z,5.07
2023-05-07T08:26:40.405Z,4.85
2023-05-07T08:29:07.288Z,4.60
2023-05-07T08:31:34.086Z,5.30
2023-05-07T08:34:00.981Z,5.00
2023-05-07T08:36:27.648Z,5.20
2023-05-07T08:38:54.443Z,5.00
2023-05-07T08:41:21.302Z,5.30
2023-05-07T08:43:51.272Z,4.90
2023-05-07T08:46:20.486Z,5.10
2023-05-07T08:48:51.077Z,4.90
2023-05-07T08:51:19.908Z,4.90
2023-05-07T08:53:49.250Z,4.93
2023-05-07T08:56:16.892Z,4.90
2023-05-07T08:58:44.702Z,4.70
2023-05-07T09:01:14.851Z,5.50
2023-05-07T09:03:42.750Z,4.67
2023-05-07T09:06:09.461Z,4.93
2023-05-07T09:08:36.783Z,4.70
2023-05-07T09:11:03.939Z,5.10
2023-05-07T09:13:31.137Z,5.13
2023-05-07T09:15:57.818Z,5.10
2023-05-07T09:18:27.483Z,5.63
2023-05-07T09:20:54.116Z,4.43
2023-05-07T09:23:21.918Z,4.87
2023-05-07T09:25:48.518Z,4.70
2023-05-07T09:28:15.286Z,4.70
2023-05-07T09:30:41.899Z,4.83
2023-05-07T09:33:08.610Z,4.90
2023-05-07T09:35:35.293Z,5.10
2023-05-07T09:38:04.440Z,4.93
2023-05-07T09:40:32.007Z,4.40
2023-05-07T09:43:11.218Z,4.73
2023-05-07T09:45:38.425Z,4.40
2023-05-07T09:48:07.775Z,4.57
2023-05-07T09:50:38.747Z,4.60
2023-05-07T09:53:05.947Z,4.10
2023-05-07T09:55:32.637Z,4.83
2023-05-07T09:58:00.544Z,4.70
2023-05-07T10:00:28.672Z,4.43
2023-05-07T10:02:58.606Z,4.77
2023-05-07T10:05:26.261Z,4.43
2023-05-07T10:07:55.011Z,4.80
2023-05-07T10:10:22.909Z,4.70
2023-05-07T10:12:50.727Z,4.17
2023-05-07T10:15:18.106Z,3.97
2023-05-07T10:17:45.930Z,4.30
2023-05-07T10:20:12.832Z,4.67
2023-05-07T10:22:45.699Z,4.33
2023-05-07T10:25:33.374Z,4.10
2023-05-07T10:28:08.369Z,4.27
2023-05-07T10:31:08.714Z,3.87
2023-05-07T10:33:37.318Z,4.17
2023-05-07T10:36:05.538Z,4.10
2023-05-07T10:38:32.506Z,4.07
2023-05-07T10:40:59.401Z,3.80
2023-05-07T10:43:26.153Z,3.70
2023-05-07T10:46:18.783Z,3.50
2023-05-07T10:49:07.313Z,3.63
2023-05-07T10:51:35.281Z,3.90
2023-05-07T10:54:10.808Z,3.27
2023-05-07T10:56:44.001Z,3.57
2023-05-07T10:59:28.173Z,3.50
2023-05-07T11:02:00.178Z,4.33
2023-05-07T11:04:28.316Z,3.20
2023-05-07T11:07:07.230Z,3.57
2023-05-07T11:09:52.446Z,3.00
2023-05-07T11:12:37.505Z,3.20
2023-05-07T11:15:08.160Z,3.40
2023-05-07T11:17:37.296Z,3.47
2023-05-07T11:20:05.588Z,3.40
2023-05-07T11:22:32.603Z,3.40
2023-05-07T11:25:04.016Z,3.33
2023-05-07T11:27:30.971Z,3.17
2023-05-07T11:29:57.940Z,3.10
2023-05-07T11:32:30.858Z,3.20
2023-05-07T11:34:59.283Z,2.97
2023-05-07T11:37:27.766Z,2.97
2023-05-07T11:40:10.319Z,3.17
2023-05-07T11:42:44.126Z,3.10
2023-05-07T11:45:11.748Z,3.20
2023-05-07T11:47:38.731Z,3.50
2023-05-07T11:50:11.481Z,3.13
2023-05-07T11:52:40.092Z,3.20
2023-05-07T11:55:08.898Z,3.10
2023-05-07T11:57:36.212Z,3.20
2023-05-07T12:00:05.423Z,3.10
2023-05-07T12:02:32.524Z,3.43
2023-05-07T12:05:01.893Z,3.30
2023-05-07T12:07:28.604Z,3.30
2023-05-07T12:09:55.379Z,3.20
2023-05-07T12:12:22.013Z,3.33
2023-05-07T12:14:49.411Z,3.30
2023-05-07T12:17:17.325Z,4.17
2023-05-07T12:19:45.684Z,3.33
2023-05-07T12:22:12.900Z,3.97
2023-05-07T12:24:46.368Z,4.73
2023-05-07T12:27:13.693Z,4.40
2023-05-07T12:29:41.854Z,3.57
2023-05-07T12:32:17.981Z,2.90
2023-05-07T12:34:52.021Z,3.60
2023-05-07T12:37:25.789Z,3.70
2023-05-07T12:40:10.260Z,3.43
2023-05-07T12:42:37.864Z,3.70
2023-05-07T12:45:17.033Z,3.40
2023-05-07T12:47:48.223Z,3.73
2023-05-07T12:50:16.419Z,3.30
2023-05-07T12:52:45.376Z,3.20
2023-05-07T12:55:15.968Z,3.60
2023-05-07T12:57:44.805Z,3.33
2023-05-07T13:00:12.088Z,3.10
2023-05-07T13:02:40.388Z,3.40
2023-05-07T13:05:08.015Z,3.20
2023-05-07T13:07:34.927Z,3.60
2023-05-07T13:10:02.402Z,3.20
2023-05-07T13:12:29.164Z,3.30
2023-05-07T13:14:55.960Z,3.00
2023-05-07T13:17:22.795Z,3.00
2023-05-07T13:19:49.484Z,3.40
2023-05-07T13:22:16.119Z,3.43
2023-05-07T13:24:44.583Z,2.80
2023-05-07T13:27:11.366Z,3.23
2023-05-07T13:29:38.008Z,3.30
2023-05-07T13:32:05.017Z,3.13
2023-05-07T13:34:31.696Z,3.20
2023-05-07T13:36:58.460Z,3.10
2023-05-07T13:39:25.080Z,3.00
2023-05-07T13:41:51.861Z,3.13
2023-05-07T13:44:18.508Z,2.77
2023-05-07T13:46:45.163Z,3.70
2023-05-07T13:49:13.399Z,3.07
2023-05-07T13:51:40.000Z,3.00
2023-05-07T13:54:06.704Z,2.77
2023-05-07T13:56:33.409Z,3.80
2023-05-07T13:59:00.983Z,3.10
2023-05-07T14:01:28.274Z,3.03
2023-05-07T14:03:55.128Z,3.43
2023-05-07T14:06:22.782Z,3.47
2023-05-07T14:08:49.418Z,3.50
2023-05-07T14:11:16.074Z,3.30
2023-05-07T14:13:42.731Z,3.53
2023-05-07T14:16:09.448Z,2.90
2023-05-07T14:18:38.002Z,3.33
2023-05-07T14:21:07.073Z,3.27
2023-05-07T14:23:34.120Z,3.57
2023-05-07T14:26:00.774Z,3.40
2023-05-07T14:28:27.407Z,3.70
2023-05-07T14:30:54.062Z,3.80
2023-05-07T14:33:20.723Z,3.90
2023-05-07T14:35:49.673Z,3.70
2023-05-07T14:38:16.652Z,3.17
2023-05-07T14:40:43.513Z,3.80
2023-05-07T14:43:10.251Z,3.90
2023-05-07T14:45:36.902Z,3.77
2023-05-07T14:48:04.022Z,3.70
2023-05-07T14:50:30.837Z,3.20
2023-05-07T14:52:57.508Z,4.27
2023-05-07T14:55:24.199Z,3.33
2023-05-07T14:57:50.949Z,3.73
2023-05-07T15:00:17.748Z,3.40
2023-05-07T15:02:44.482Z,3.70
2023-05-07T15:05:11.416Z,3.77
2023-05-07T15:07:38.268Z,3.70
2023-05-07T15:10:05.399Z,3.50
2023-05-07T15:12:32.077Z,4.50
2023-05-07T15:14:58.796Z,3.70
2023-05-07T15:17:25.633Z,4.30
2023-05-07T15:19:54.390Z,3.63
2023-05-07T15:22:22.480Z,3.63
2023-05-07T15:24:49.170Z,3.73
2023-05-07T15:27:15.900Z,3.70
2023-05-07T15:29:43.962Z,3.97
2023-05-07T15:32:11.375Z,4.07
2023-05-07T15:34:38.174Z,3.97
2023-05-07T15:37:04.835Z,4.20
2023-05-07T15:39:31.903Z,3.90
2023-05-07T15:41:58.629Z,3.87
2023-05-07T15:44:29.558Z,3.63
2023-05-07T15:46:56.247Z,4.73
2023-05-07T15:49:23.114Z,3.97
2023-05-07T15:51:51.727Z,4.70
2023-05-07T15:54:20.940Z,4.33
2023-05-07T15:56:47.950Z,3.97
2023-05-07T15:59:16.381Z,4.60
2023-05-07T16:01:43.516Z,4.40
2023-05-07T16:04:10.824Z,4.20
2023-05-07T16:06:37.540Z,4.67
2023-05-07T16:09:04.211Z,4.53
2023-05-07T16:11:30.863Z,4.40
2023-05-07T16:13:57.565Z,4.40
2023-05-07T16:16:26.618Z,4.27
2023-05-07T16:18:53.327Z,4.83
2023-05-07T16:21:20.030Z,4.90
2023-05-07T16:23:46.947Z,5.23
2023-05-07T16:26:14.564Z,5.20
2023-05-07T16:28:41.218Z,4.83
2023-05-07T16:31:08.631Z,5.70
2023-05-07T16:33:36.025Z,5.65
2023-05-07T16:36:03.392Z,5.37
2023-05-07T16:38:33.024Z,5.25
2023-05-07T16:41:00.023Z,4.82
2023-05-07T16:43:26.852Z,5.18
2023-05-07T16:45:53.770Z,4.90
2023-05-07T16:48:21.237Z,4.95
2023-05-07T16:50:48.024Z,5.38
2023-05-07T16:53:14.877Z,5.30
2023-05-07T16:55:41.634Z,5.20
2023-05-07T16:58:11.307Z,5.38
2023-05-07T17:00:50.170Z,5.35
2023-05-07T17:03:18.846Z,5.30
2023-05-07T17:05:45.890Z,5.13
2023-05-07T17:08:13.639Z,5.20
2023-05-07T17:10:41.172Z,5.63
2023-05-07T17:13:07.922Z,5.63
2023-05-07T17:15:34.609Z,5.40
2023-05-07T17:18:01.311Z,5.32
2023-05-07T17:20:28.642Z,5.32
2023-05-07T17:22:55.643Z,6.00
2023-05-07T17:25:23.311Z,6.00
2023-05-07T17:27:50.494Z,7.40
2023-05-07T17:30:17.729Z,5.55
2023-05-07T17:32:44.406Z,6.15
2023-05-07T17:35:11.160Z,5.70
2023-05-07T17:37:37.948Z,5.63
2023-05-07T17:40:05.320Z,5.47
2023-05-07T17:42:32.071Z,5.50
2023-05-07T17:44:58.772Z,5.75
2023-05-07T17:47:25.443Z,5.82
2023-05-07T17:49:52.141Z,5.55
2023-05-07T17:52:18.733Z,5.50
2023-05-07T17:54:45.654Z,5.55
2023-05-07T17:57:12.300Z,5.30
2023-05-07T17:59:40.084Z,5.15
2023-05-07T18:02:06.952Z,5.50
2023-05-07T18:04:33.627Z,5.60
2023-05-07T18:07:00.317Z,5.10
2023-05-07T18:09:27.062Z,5.00
2023-05-07T18:11:53.925Z,4.80
2023-05-07T18:14:24.323Z,5.65
2023-05-07T18:16:51.256Z,5.10
2023-05-07T18:19:18.051Z,5.20
2023-05-07T18:21:44.678Z,5.15
2023-05-07T18:24:11.443Z,5.45
2023-05-07T18:26:38.211Z,5.78
2023-05-07T18:29:04.878Z,5.78
2023-05-07T18:31:31.513Z,6.45
2023-05-07T18:33:58.194Z,5.90
2023-05-07T18:36:25.062Z,6.00
2023-05-07T18:38:52.458Z,5.63
2023-05-07T18:41:19.159Z,5.60
2023-05-07T18:43:45.957Z,5.35
2023-05-07T18:46:12.738Z,5.43
2023-05-07T18:48:39.860Z,5.35
2023-05-07T18:51:08.369Z,5.15
2023-05-07T18:53:35.016Z,4.75
2023-05-07T18:56:01.794Z,5.10
2023-05-07T18:58:28.413Z,4.85
2023-05-07T19:00:55.843Z,5.30
2023-05-07T19:03:22.649Z,5.95
2023-05-07T19:05:49.334Z,6.05
2023-05-07T19:08:15.964Z,5.57
2023-05-07T19:10:42.651Z,5.53
2023-05-07T19:13:09.366Z,5.50
2023-05-07T19:15:36.061Z,5.78
2023-05-07T19:18:02.768Z,5.63
2023-05-07T19:20:29.781Z,6.00
2023-05-07T19:22:56.842Z,5.80
2023-05-07T19:25:23.680Z,6.53
2023-05-07T19:27:51.166Z,6.20
2023-05-07T19:30:18.009Z,6.82
2023-05-07T19:32:44.639Z,6.03
2023-05-07T19:35:11.577Z,6.30
2023-05-07T19:37:38.871Z,6.05
2023-05-07T19:40:06.550Z,6.47
2023-05-07T19:42:33.278Z,6.35
2023-05-07T19:45:00.114Z,7.50
2023-05-07T19:47:26.861Z,7.10
2023-05-07T19:49:53.664Z,6.90
2023-05-07T19:52:20.400Z,7.25
2023-05-07T19:54:47.230Z,6.85
2023-05-07T19:57:14.365Z,7.93
2023-05-07T19:59:41.164Z,6.78
2023-05-07T20:02:07.909Z,7.18
2023-05-07T20:04:38.043Z,6.95
2023-05-07T20:07:05.722Z,7.13
2023-05-07T20:09:32.538Z,7.80
2023-05-07T20:11:59.190Z,7.78
2023-05-07T20:14:27.232Z,8.05
2023-05-07T20:16:53.982Z,8.40
2023-05-07T20:19:20.791Z,7.65
2023-05-07T20:21:47.401Z,6.90
2023-05-07T20:24:14.299Z,7.10
2023-05-07T20:26:41.309Z,7.30
2023-05-07T20:29:08.077Z,7.60
2023-05-07T20:31:35.264Z,8.05
2023-05-07T20:34:02.533Z,8.13
2023-05-07T20:36:29.654Z,7.90
2023-05-07T20:38:56.311Z,8.15
2023-05-07T20:41:25.435Z,9.35
2023-05-07T20:43:52.295Z,9.10
2023-05-07T20:46:22.659Z,9.20
2023-05-07T20:48:49.995Z,10.55
2023-05-07T20:51:16.812Z,10.00
2023-05-07T20:53:48.023Z,11.05
2023-05-07T20:56:15.804Z,10.15
2023-05-07T20:58:42.411Z,9.98
2023-05-07T21:01:09.360Z,10.07
2023-05-07T21:03:36.177Z,9.10
2023-05-07T21:06:04.085Z,10.30
2023-05-07T21:08:30.960Z,9.40
2023-05-07T21:10:57.742Z,9.65
2023-05-07T21:13:24.592Z,10.40
2023-05-07T21:15:51.466Z,10.85
2023-05-07T21:18:19.066Z,11.52
2023-05-07T21:20:45.712Z,11.68
2023-05-07T21:23:12.317Z,12.15
2023-05-07T21:25:40.873Z,12.90
2023-05-07T21:28:08.776Z,13.05
2023-05-07T21:30:36.231Z,13.93
2023-05-07T21:33:03.056Z,12.88
2023-05-07T21:35:29.886Z,12.70
2023-05-07T21:37:56.523Z,13.20
2023-05-07T21:40:23.150Z,13.73
2023-05-07T21:42:49.785Z,14.15
2023-05-07T21:45:16.521Z,13.98
2023-05-07T21:47:43.175Z,13.95
2023-05-07T21:50:10.557Z,13.25
2023-05-07T21:52:37.798Z,13.32
2023-05-07T21:55:04.836Z,12.73
2023-05-07T21:57:31.591Z,12.10
2023-05-07T21:59:58.249Z,12.00
2023-05-07T22:02:25.755Z,11.55
2023-05-07T22:04:52.660Z,11.45
2023-05-07T22:07:19.313Z,10.75
2023-05-07T22:09:45.924Z,10.68
2023-05-07T22:12:12.616Z,11.57
2023-05-07T22:14:39.295Z,12.00
2023-05-07T22:17:05.920Z,11.02
2023-05-07T22:19:32.585Z,10.43
2023-05-07T22:21:59.877Z,10.55
2023-05-07T22:24:26.494Z,11.68
2023-05-07T22:26:53.166Z,10.20
2023-05-07T22:29:21.194Z,10.82
2023-05-07T22:31:47.839Z,10.70
2023-05-07T22:34:14.528Z,10.18
2023-05-07T22:36:41.252Z,10.55
2023-05-07T22:39:09.795Z,11.00
2023-05-07T22:41:36.662Z,10.20
2023-05-07T22:44:03.373Z,10.57
2023-05-07T22:46:30.203Z,10.60
2023-05-07T22:48:56.909Z,10.57
2023-05-07T22:51:23.562Z,11.07
2023-05-07T22:53:50.184Z,9.93
2023-05-07T22:56:16.864Z,10.23
2023-05-07T22:58:43.493Z,10.25
2023-05-07T23:01:18.645Z,9.35
2023-05-07T23:03:45.486Z,10.20
2023-05-07T23:06:12.661Z,11.23
2023-05-07T23:08:39.375Z,10.07
2023-05-07T23:11:06.174Z,9.77
2023-05-07T23:13:32.860Z,9.73
2023-05-07T23:15:59.460Z,11.05
2023-05-07T23:18:27.958Z,9.88
2023-05-07T23:20:54.948Z,9.68
2023-05-07T23:23:22.075Z,9.57
2023-05-07T23:25:52.354Z,9.82
2023-05-07T23:28:19.103Z,9.70
2023-05-07T23:30:45.884Z,9.95
2023-05-07T23:33:12.599Z,9.88
2023-05-07T23:35:39.175Z,10.48
2023-05-07T23:38:05.862Z,9.40
2023-05-07T23:40:32.452Z,10.77
2023-05-07T23:42:59.078Z,10.95
2023-05-07T23:45:25.753Z,9.60
2023-05-07T23:47:52.470Z,8.90
2023-05-07T23:50:19.182Z,10.55
2023-05-07T23:52:45.938Z,10.10
2023-05-07T23:55:13.712Z,9.40
2023-05-07T23:57:40.343Z,11.35
